Time;durP1;ratioP1;P1;durP2;ratioP2;P2;SDS_P1;SDS_P2;PMS_P1;PMS_P2;Temp;Humidity;BMP_temperature;BMP_pressure;BME280_temperature;BME280_humidity;BME280_pressure;Samples;Min_cycle;Max_cycle;Signal;HPM_P1;HPM_P2
2022/10/02 00:02:39;;;;;;;1.30;0.70;;;9.80;99.90;;;;;;5072284;28;20429;-69
2022/10/02 00:05:17;;;;;;;1.30;0.50;;;9.80;99.90;;;;;;5073659;28;20025;-69
2022/10/02 00:07:58;;;;;;;1.67;0.73;;;9.80;99.90;;;;;;5074292;28;20028;-69
2022/10/02 00:10:45;;;;;;;1.58;0.60;;;9.80;99.90;;;;;;5074256;28;20048;-69
2022/10/02 00:13:16;;;;;;;1.85;0.82;;;9.80;99.90;;;;;;5073573;28;20037;-70
2022/10/02 00:15:43;;;;;;;1.58;0.60;;;9.80;99.90;;;;;;5073595;28;20104;-69
2022/10/02 00:18:16;;;;;;;1.75;0.75;;;9.80;99.90;;;;;;5072357;28;20029;-69
2022/10/02 00:20:42;;;;;;;1.80;0.90;;;9.80;99.90;;;;;;5073902;28;20017;-70
2022/10/02 00:23:35;;;;;;;1.52;0.80;;;9.80;99.90;;;;;;5073432;28;20472;-70
2022/10/02 00:26:09;;;;;;;1.30;0.70;;;9.80;99.90;;;;;;5067501;28;20060;-69
2022/10/02 00:28:52;;;;;;;1.77;0.65;;;9.80;99.90;;;;;;5073687;28;20020;-70
2022/10/02 00:31:50;;;;;;;1.70;0.50;;;9.80;99.90;;;;;;5073663;28;20028;-69
2022/10/02 00:34:25;;;;;;;0.77;0.45;;;9.80;99.90;;;;;;5073516;28;20028;-69
2022/10/02 00:37:07;;;;;;;1.00;0.60;;;9.80;99.90;;;;;;5073127;28;20119;-69
2022/10/02 00:39:42;;;;;;;3.25;0.80;;;9.70;99.90;;;;;;5073316;28;20099;-69
2022/10/02 00:42:19;;;;;;;0.60;0.40;;;9.70;99.90;;;;;;5073514;28;20530;-69
2022/10/02 00:45:23;;;;;;;2.05;0.70;;;9.70;99.90;;;;;;5071780;28;20063;-69
2022/10/02 00:48:08;;;;;;;2.00;0.57;;;9.70;99.90;;;;;;5073473;28;20020;-69
2022/10/02 00:50:51;;;;;;;0.85;0.50;;;9.70;99.90;;;;;;5073177;28;20366;-69
2022/10/02 00:53:51;;;;;;;1.25;0.77;;;9.70;99.90;;;;;;5073413;28;20020;-69
2022/10/02 00:56:35;;;;;;;1.27;0.63;;;9.70;99.90;;;;;;5071800;28;20035;-69
2022/10/02 00:59:49;;;;;;;1.05;0.50;;;9.70;99.90;;;;;;5073126;28;20025;-69
2022/10/02 01:02:42;;;;;;;1.48;0.80;;;9.70;99.90;;;;;;5031179;28;20021;-69
2022/10/02 01:05:09;;;;;;;0.93;0.55;;;9.70;99.90;;;;;;5047879;28;20033;-70
2022/10/02 01:07:41;;;;;;;1.42;0.55;;;9.70;99.90;;;;;;5072909;28;20031;-69
2022/10/02 01:10:09;;;;;;;1.98;0.40;;;9.70;99.90;;;;;;5072751;28;20045;-70
2022/10/02 01:12:36;;;;;;;0.93;0.40;;;9.70;99.90;;;;;;5073282;28;20025;-69
2022/10/02 01:15:11;;;;;;;2.05;0.57;;;9.70;99.90;;;;;;5076027;28;20032;-69
2022/10/02 01:17:37;;;;;;;2.40;0.68;;;9.70;99.90;;;;;;5076503;28;20021;-69
2022/10/02 01:20:05;;;;;;;1.58;0.60;;;9.70;99.90;;;;;;5076714;28;20083;-69
2022/10/02 01:22:39;;;;;;;2.22;0.90;;;9.70;99.90;;;;;;5076638;28;20017;-69
2022/10/02 01:25:07;;;;;;;4.05;1.80;;;9.70;99.90;;;;;;5057762;28;20028;-70
2022/10/02 01:27:34;;;;;;;1.40;0.50;;;9.60;99.90;;;;;;5076636;28;20028;-70
2022/10/02 01:30:19;;;;;;;2.63;0.63;;;9.60;99.90;;;;;;5058863;28;20028;-70
2022/10/02 01:32:53;;;;;;;1.45;0.80;;;9.60;99.90;;;;;;5076235;28;20099;-70
2022/10/02 01:35:21;;;;;;;1.80;0.68;;;9.60;99.90;;;;;;5076274;28;20039;-70
2022/10/02 01:37:49;;;;;;;1.65;0.50;;;9.60;99.90;;;;;;5076462;28;20082;-70
2022/10/02 01:40:32;;;;;;;1.10;0.65;;;9.60;99.90;;;;;;5076774;28;20024;-69
2022/10/02 01:43:33;;;;;;;1.05;0.60;;;9.60;99.90;;;;;;5076703;28;20024;-70
2022/10/02 01:46:26;;;;;;;1.65;0.65;;;9.60;99.90;;;;;;5023329;28;20064;-70
2022/10/02 01:49:00;;;;;;;1.70;0.60;;;9.60;99.90;;;;;;5058352;28;20396;-70
2022/10/02 01:51:47;;;;;;;3.25;0.82;;;9.60;99.90;;;;;;5076585;28;20107;-69
2022/10/02 01:54:24;;;;;;;1.50;0.70;;;9.60;99.90;;;;;;5076569;28;20016;-70
2022/10/02 01:57:07;;;;;;;1.30;0.75;;;9.70;99.90;;;;;;5076150;28;20020;-69
2022/10/02 01:59:33;;;;;;;1.58;0.85;;;9.60;99.90;;;;;;5076695;28;20029;-69
2022/10/02 02:02:17;;;;;;;3.65;1.25;;;9.70;99.90;;;;;;5076113;28;20099;-69
2022/10/02 02:05:09;;;;;;;3.28;1.23;;;9.70;99.90;;;;;;5075950;28;20052;-69
2022/10/02 02:07:50;;;;;;;1.83;0.85;;;9.70;99.90;;;;;;5029435;28;20047;-69
2022/10/02 02:10:15;;;;;;;0.90;0.50;;;9.70;99.90;;;;;;5075994;28;20028;-70
2022/10/02 02:12:44;;;;;;;2.08;0.65;;;9.80;99.90;;;;;;5075892;28;20170;-69
2022/10/02 02:15:28;;;;;;;0.88;0.40;;;9.80;99.90;;;;;;5075851;28;20449;-69
2022/10/02 02:18:04;;;;;;;1.17;0.68;;;9.80;99.90;;;;;;5076161;28;20104;-69
2022/10/02 02:20:42;;;;;;;0.98;0.50;;;9.80;99.90;;;;;;5076107;28;20028;-69
2022/10/02 02:23:14;;;;;;;1.95;0.50;;;9.80;99.90;;;;;;5075956;28;20103;-69
2022/10/02 02:25:44;;;;;;;2.25;0.80;;;9.80;99.90;;;;;;5075839;28;20020;-69
2022/10/02 02:28:14;;;;;;;1.05;0.55;;;9.80;99.90;;;;;;5057701;28;20024;-69
2022/10/02 02:30:43;;;;;;;1.45;0.95;;;9.70;99.90;;;;;;5075566;28;20100;-70
2022/10/02 02:33:19;;;;;;;2.38;1.50;;;9.70;99.90;;;;;;5076774;28;20044;-70
2022/10/02 02:35:52;;;;;;;2.05;1.15;;;9.70;99.90;;;;;;5075509;28;20499;-69
2022/10/02 02:38:32;;;;;;;1.27;0.70;;;9.70;99.90;;;;;;5075728;28;20590;-70
2022/10/02 02:41:07;;;;;;;2.17;1.10;;;9.70;99.90;;;;;;5075927;28;20025;-70
2022/10/02 02:43:57;;;;;;;3.35;1.10;;;9.70;99.90;;;;;;5075683;28;20507;-69
2022/10/02 02:46:27;;;;;;;2.45;1.20;;;9.70;99.90;;;;;;5075364;28;20472;-69
2022/10/02 02:49:06;;;;;;;2.50;1.13;;;9.70;99.90;;;;;;5075238;28;20103;-70
2022/10/02 02:51:39;;;;;;;2.10;1.15;;;9.70;99.90;;;;;;5075506;28;20100;-70
2022/10/02 02:54:18;;;;;;;3.63;1.38;;;9.70;99.90;;;;;;5075459;28;20013;-70
2022/10/02 02:56:46;;;;;;;3.13;1.38;;;9.70;99.90;;;;;;5075149;28;20020;-70
2022/10/02 02:59:14;;;;;;;2.63;1.10;;;9.70;99.90;;;;;;5075316;28;20031;-70
2022/10/02 03:01:41;;;;;;;2.58;1.00;;;9.70;99.90;;;;;;5075019;28;20017;-70
2022/10/02 03:04:13;;;;;;;2.22;1.13;;;9.70;99.90;;;;;;5074863;28;20027;-69
2022/10/02 03:06:44;;;;;;;4.25;1.20;;;9.70;99.90;;;;;;5074795;28;20025;-69
2022/10/02 03:09:19;;;;;;;2.30;0.95;;;9.70;99.90;;;;;;5075195;28;20090;-69
2022/10/02 03:11:55;;;;;;;2.20;1.25;;;9.70;99.90;;;;;;5075078;28;20498;-69
2022/10/02 03:14:26;;;;;;;1.63;0.85;;;9.70;99.90;;;;;;5075359;28;20029;-69
2022/10/02 03:17:16;;;;;;;1.75;0.90;;;9.60;99.90;;;;;;5074686;28;20021;-69
2022/10/02 03:19:45;;;;;;;2.25;0.98;;;9.60;99.90;;;;;;5074655;28;20056;-69
2022/10/02 03:22:40;;;;;;;2.28;1.10;;;9.60;99.90;;;;;;5074668;28;20108;-69
2022/10/02 03:25:14;;;;;;;3.65;1.17;;;9.50;99.90;;;;;;5074392;28;20101;-70
2022/10/02 03:28:01;;;;;;;2.40;1.00;;;9.50;99.90;;;;;;5074437;28;20046;-70
2022/10/02 03:30:27;;;;;;;1.70;0.70;;;9.50;99.90;;;;;;5074712;28;20095;-70
2022/10/02 03:32:55;;;;;;;1.77;0.80;;;9.50;99.90;;;;;;5074871;28;20465;-70
2022/10/02 03:35:22;;;;;;;1.98;1.05;;;9.50;99.90;;;;;;5056411;28;20500;-70
2022/10/02 03:37:51;;;;;;;14.50;5.75;;;9.50;99.90;;;;;;5074201;28;20029;-71
2022/10/02 03:40:22;;;;;;;5.32;2.50;;;9.50;99.90;;;;;;5074194;28;20036;-70
2022/10/02 03:42:47;;;;;;;3.47;1.63;;;9.50;99.90;;;;;;5040516;28;20429;-70
2022/10/02 03:45:13;;;;;;;4.18;1.48;;;9.50;99.90;;;;;;5073946;28;20032;-70
2022/10/02 03:47:39;;;;;;;2.10;0.90;;;9.50;99.90;;;;;;5074030;28;20153;-70
2022/10/02 03:50:05;;;;;;;3.47;0.90;;;9.50;99.90;;;;;;5074012;28;20081;-70
2022/10/02 03:52:33;;;;;;;2.17;0.88;;;9.50;99.90;;;;;;5073997;28;20029;-70
2022/10/02 03:55:03;;;;;;;1.40;0.60;;;9.50;99.90;;;;;;5055888;28;20109;-70
2022/10/02 03:57:32;;;;;;;2.90;0.60;;;9.50;99.90;;;;;;5056012;28;20035;-71
2022/10/02 04:00:25;;;;;;;1.92;1.10;;;9.50;99.90;;;;;;5074081;28;20029;-71
2022/10/02 04:03:17;;;;;;;2.30;0.90;;;9.40;99.90;;;;;;5056147;28;20033;-71
2022/10/02 04:05:52;;;;;;;4.13;1.92;;;9.50;99.90;;;;;;5059231;28;20029;-71
2022/10/02 04:08:39;;;;;;;3.95;1.83;;;9.50;99.90;;;;;;5074271;28;20353;-71
2022/10/02 04:11:28;;;;;;;4.38;2.25;;;9.50;99.90;;;;;;5074240;28;20027;-71
2022/10/02 04:14:11;;;;;;;5.72;2.13;;;9.40;99.90;;;;;;5074105;28;20065;-71
2022/10/02 04:16:37;;;;;;;3.22;1.50;;;9.40;99.90;;;;;;5073571;28;20017;-71
2022/10/02 04:19:12;;;;;;;9.85;4.72;;;9.40;99.90;;;;;;5073549;28;20498;-71
2022/10/02 04:21:55;;;;;;;10.98;4.70;;;9.40;99.90;;;;;;5073482;28;20020;-71
2022/10/02 04:24:41;;;;;;;33.55;17.15;;;9.40;99.90;;;;;;5073658;28;20074;-70
2022/10/02 04:27:13;;;;;;;34.42;18.27;;;9.40;99.90;;;;;;5073689;28;20556;-70
2022/10/02 04:30:01;;;;;;;40.58;21.48;;;9.40;99.90;;;;;;5073685;28;20024;-71
2022/10/02 04:32:35;;;;;;;63.83;27.58;;;9.40;99.90;;;;;;5073293;28;20016;-71
2022/10/02 04:35:12;;;;;;;62.20;27.00;;;9.50;99.90;;;;;;5073410;28;20396;-71
2022/10/02 04:37:55;;;;;;;59.00;24.80;;;9.50;99.90;;;;;;5073327;28;20059;-71
2022/10/02 04:40:35;;;;;;;50.92;23.52;;;9.50;99.90;;;;;;5073338;28;20024;-71
2022/10/02 04:43:20;;;;;;;33.70;16.33;;;9.50;99.90;;;;;;5073633;28;20024;-71
2022/10/02 04:46:03;;;;;;;22.48;10.75;;;9.50;99.90;;;;;;5073667;28;20103;-70
2022/10/02 04:49:09;;;;;;;7.53;4.60;;;9.50;99.90;;;;;;5073211;28;20021;-71
2022/10/02 04:51:51;;;;;;;6.85;3.70;;;9.60;99.90;;;;;;5073696;28;20107;-71
2022/10/02 04:54:36;;;;;;;5.55;2.45;;;9.60;99.90;;;;;;5073350;28;20472;-71
2022/10/02 04:57:26;;;;;;;6.93;4.38;;;9.50;99.90;;;;;;5073015;28;20526;-71
2022/10/02 05:00:07;;;;;;;6.95;4.47;;;9.50;99.90;;;;;;5073602;28;20035;-71
2022/10/02 05:02:38;;;;;;;8.18;4.45;;;9.50;99.90;;;;;;5073079;28;20032;-71
2022/10/02 05:05:31;;;;;;;4.88;3.40;;;9.50;99.90;;;;;;5073465;28;20056;-71
2022/10/02 05:08:03;;;;;;;5.10;2.53;;;9.50;99.90;;;;;;5072973;28;20024;-71
2022/10/02 05:10:44;;;;;;;8.00;5.75;;;9.60;99.90;;;;;;5072927;28;20029;-71
2022/10/02 05:13:18;;;;;;;12.45;9.70;;;9.50;99.90;;;;;;5072888;28;20030;-71
2022/10/02 05:16:11;;;;;;;8.60;4.93;;;9.50;99.90;;;;;;5073016;28;20020;-71
2022/10/02 05:19:16;;;;;;;7.00;3.63;;;9.50;99.90;;;;;;5072818;28;20543;-71
2022/10/02 05:22:12;;;;;;;6.18;3.45;;;9.50;99.90;;;;;;5072028;28;20052;-71
2022/10/02 05:24:41;;;;;;;5.03;3.30;;;9.50;99.90;;;;;;5072833;28;20085;-71
2022/10/02 05:27:44;;;;;;;6.68;4.60;;;9.50;99.90;;;;;;5072805;28;20028;-71
2022/10/02 05:30:13;;;;;;;9.70;7.68;;;9.50;99.90;;;;;;5073004;28;20071;-71
2022/10/02 05:33:08;;;;;;;7.45;6.20;;;9.50;99.90;;;;;;5072994;28;20028;-71
2022/10/02 05:35:34;;;;;;;7.50;5.70;;;9.50;99.90;;;;;;5033492;28;20041;-71
2022/10/02 05:38:21;;;;;;;6.65;4.97;;;9.50;99.90;;;;;;5072659;28;20025;-71
2022/10/02 05:41:13;;;;;;;6.75;5.22;;;9.50;99.90;;;;;;5073209;28;20020;-70
2022/10/02 05:43:55;;;;;;;36.42;13.45;;;9.50;99.90;;;;;;5072897;28;20021;-70
2022/10/02 05:46:27;;;;;;;41.53;18.70;;;9.60;99.90;;;;;;5072510;28;20024;-70
2022/10/02 05:48:57;;;;;;;57.28;23.70;;;9.60;99.90;;;;;;5072881;28;20025;-70
2022/10/02 05:51:35;;;;;;;63.35;27.92;;;9.60;99.90;;;;;;5072570;28;20078;-70
2022/10/02 05:54:46;;;;;;;83.47;34.85;;;9.60;99.90;;;;;;5054635;28;20020;-71
2022/10/02 05:57:15;;;;;;;106.28;44.92;;;9.70;99.90;;;;;;4971975;28;20106;-71
2022/10/02 06:00:03;;;;;;;130.20;56.17;;;9.70;99.90;;;;;;5062772;28;20056;-70
2022/10/02 06:02:56;;;;;;;128.52;58.15;;;9.70;99.90;;;;;;5076428;28;20463;-70
2022/10/02 06:05:40;;;;;;;130.50;58.83;;;9.70;99.90;;;;;;5076203;28;20035;-70
2022/10/02 06:08:10;;;;;;;118.95;53.65;;;9.70;99.90;;;;;;5076166;28;20092;-70
2022/10/02 06:10:43;;;;;;;66.00;33.43;;;9.70;99.90;;;;;;5057202;28;20021;-70
2022/10/02 06:13:23;;;;;;;49.38;24.35;;;9.70;99.90;;;;;;5069574;28;20099;-70
2022/10/02 06:16:10;;;;;;;19.33;11.23;;;9.70;99.90;;;;;;5070157;28;20020;-70
2022/10/02 06:18:40;;;;;;;9.25;4.55;;;9.80;99.90;;;;;;5075674;28;20052;-70
2022/10/02 06:21:17;;;;;;;8.07;4.25;;;9.80;99.90;;;;;;5075262;28;20133;-70
2022/10/02 06:23:48;;;;;;;6.65;3.30;;;9.70;99.90;;;;;;5075545;28;20477;-70
2022/10/02 06:26:36;;;;;;;4.53;2.60;;;9.80;99.90;;;;;;5074568;28;20050;-70
2022/10/02 06:29:20;;;;;;;4.93;3.28;;;9.80;99.90;;;;;;5053672;28;20025;-70
2022/10/02 06:31:49;;;;;;;8.85;5.93;;;9.80;99.90;;;;;;5075509;28;20380;-70
2022/10/02 06:34:15;;;;;;;20.42;11.70;;;9.80;99.90;;;;;;5075310;28;20017;-71
2022/10/02 06:37:13;;;;;;;17.75;9.65;;;9.80;99.90;;;;;;5070280;28;20051;-69
2022/10/02 06:39:51;;;;;;;11.82;6.70;;;9.80;99.90;;;;;;5032578;28;20037;-70
2022/10/02 06:42:19;;;;;;;2.67;1.42;;;9.80;99.90;;;;;;5075024;28;20021;-70
2022/10/02 06:45:03;;;;;;;2.47;1.50;;;9.90;99.90;;;;;;5075040;28;20032;-70
2022/10/02 06:47:43;;;;;;;2.35;1.35;;;9.90;99.90;;;;;;5075174;28;20023;-70
2022/10/02 06:50:45;;;;;;;2.67;1.35;;;9.90;99.90;;;;;;5075131;28;20028;-69
2022/10/02 06:53:45;;;;;;;3.42;1.70;;;9.90;99.90;;;;;;5075083;28;20020;-70
2022/10/02 06:56:21;;;;;;;6.82;1.98;;;10.00;99.90;;;;;;5074685;28;20634;-70
2022/10/02 06:59:03;;;;;;;4.13;1.90;;;10.00;99.90;;;;;;5074022;28;20063;-70
2022/10/02 07:01:43;;;;;;;4.60;1.95;;;10.10;99.90;;;;;;5074914;28;20105;-70
2022/10/02 07:04:24;;;;;;;2.92;2.00;;;10.10;99.90;;;;;;5074802;28;20024;-70
2022/10/02 07:07:27;;;;;;;6.57;3.35;;;10.10;99.90;;;;;;5056720;28;20088;-69
2022/10/02 07:10:31;;;;;;;7.47;3.28;;;10.10;99.90;;;;;;5068295;28;20024;-69
2022/10/02 07:13:11;;;;;;;5.45;2.58;;;10.10;99.90;;;;;;5035416;28;20033;-69
2022/10/02 07:15:55;;;;;;;4.88;2.60;;;10.10;99.90;;;;;;5074550;28;20025;-69
2022/10/02 07:18:31;;;;;;;4.78;3.20;;;10.20;99.90;;;;;;5074555;28;20472;-69
2022/10/02 07:21:14;;;;;;;4.70;3.22;;;10.20;99.90;;;;;;5073785;28;20021;-69
2022/10/02 07:23:53;;;;;;;4.75;2.90;;;10.20;99.90;;;;;;5074413;28;20095;-70
2022/10/02 07:26:56;;;;;;;7.43;2.92;;;10.20;99.90;;;;;;5073469;28;20150;-70
2022/10/02 07:29:33;;;;;;;6.28;3.00;;;10.20;99.90;;;;;;5074258;28;20055;-70
2022/10/02 07:32:20;;;;;;;5.20;2.35;;;10.20;99.90;;;;;;5074310;28;20066;-70
2022/10/02 07:35:18;;;;;;;3.67;2.65;;;10.20;99.90;;;;;;5056046;28;20029;-69
2022/10/02 07:38:09;;;;;;;7.80;4.30;;;10.30;99.90;;;;;;5073434;28;20033;-70
2022/10/02 07:41:12;;;;;;;5.18;3.03;;;10.30;99.90;;;;;;5074203;28;20376;-69
2022/10/02 07:44:18;;;;;;;3.97;2.58;;;10.30;99.90;;;;;;5073894;28;20028;-70
2022/10/02 07:46:48;;;;;;;4.70;2.40;;;10.30;99.90;;;;;;4998184;28;20043;-69
2022/10/02 07:49:41;;;;;;;3.42;2.38;;;10.30;99.90;;;;;;5073861;28;20473;-69
2022/10/02 07:52:38;;;;;;;3.65;2.47;;;10.30;99.90;;;;;;5055885;28;20021;-70
2022/10/02 07:55:12;;;;;;;7.07;4.50;;;10.30;99.90;;;;;;5072769;28;20581;-69
2022/10/02 07:58:03;;;;;;;8.35;6.10;;;10.30;99.90;;;;;;5055745;28;20028;-70
2022/10/02 08:00:39;;;;;;;8.43;5.70;;;10.40;99.90;;;;;;5056062;28;20024;-69
2022/10/02 08:03:28;;;;;;;6.15;3.80;;;10.40;99.90;;;;;;5073561;28;20025;-69
2022/10/02 08:05:55;;;;;;;5.32;2.40;;;10.50;99.90;;;;;;5072993;28;20358;-69
2022/10/02 08:08:50;;;;;;;4.55;2.22;;;10.50;99.90;;;;;;5073468;28;20067;-69
2022/10/02 08:11:31;;;;;;;6.90;3.40;;;10.50;99.90;;;;;;5073376;28;20063;-68
2022/10/02 08:14:21;;;;;;;5.60;3.03;;;10.60;99.90;;;;;;5073441;28;20107;-69
2022/10/02 08:16:50;;;;;;;5.35;3.25;;;10.60;99.90;;;;;;5072171;28;20473;-69
2022/10/02 08:19:24;;;;;;;5.15;2.80;;;10.70;99.90;;;;;;5071481;28;20046;-69
2022/10/02 08:22:15;;;;;;;3.67;2.33;;;10.70;99.90;;;;;;5071186;28;20081;-69
2022/10/02 08:24:53;;;;;;;4.80;2.50;;;10.80;99.90;;;;;;5019806;28;20081;-69
2022/10/02 08:27:43;;;;;;;3.33;2.10;;;10.70;99.90;;;;;;5072649;28;20052;-69
2022/10/02 08:30:12;;;;;;;2.30;1.40;;;10.80;99.90;;;;;;5073959;28;20044;-69
2022/10/02 08:32:38;;;;;;;3.92;2.08;;;10.80;99.90;;;;;;5073372;28;20021;-69
2022/10/02 08:35:13;;;;;;;5.30;2.10;;;10.90;99.90;;;;;;5073384;28;20033;-69
2022/10/02 08:37:53;;;;;;;5.40;2.10;;;11.00;99.90;;;;;;5073661;28;20068;-68
2022/10/02 08:40:43;;;;;;;5.88;2.85;;;11.00;99.90;;;;;;5073317;28;20020;-69
2022/10/02 08:43:30;;;;;;;5.53;2.50;;;11.00;99.90;;;;;;5073278;28;20442;-69
2022/10/02 08:46:24;;;;;;;3.97;1.98;;;11.00;99.90;;;;;;5073328;28;20021;-69
2022/10/02 08:49:28;;;;;;;4.65;2.00;;;11.00;99.90;;;;;;5073761;28;20019;-69
2022/10/02 08:52:26;;;;;;;3.53;1.50;;;11.00;99.90;;;;;;5068199;28;20396;-69
2022/10/02 08:55:29;;;;;;;6.43;3.03;;;11.00;99.90;;;;;;5073625;28;20418;-68
2022/10/02 08:58:01;;;;;;;4.68;1.60;;;11.00;99.90;;;;;;5073090;28;20100;-69
2022/10/02 09:00:30;;;;;;;2.83;1.85;;;11.00;99.90;;;;;;5073375;28;20021;-68
2022/10/02 09:03:14;;;;;;;3.03;1.60;;;10.90;99.90;;;;;;5073040;28;20119;-69
2022/10/02 09:06:21;;;;;;;2.90;1.83;;;10.90;99.90;;;;;;5073128;28;20361;-68
2022/10/02 09:09:20;;;;;;;3.78;1.50;;;10.90;99.90;;;;;;5073495;28;20035;-69
2022/10/02 09:12:24;;;;;;;2.22;1.30;;;11.00;99.90;;;;;;5073279;28;20485;-69
2022/10/02 09:14:53;;;;;;;3.80;1.30;;;11.00;99.90;;;;;;5073115;28;20021;-69
2022/10/02 09:17:31;;;;;;;2.20;1.33;;;11.00;99.90;;;;;;5073204;28;20020;-68
2022/10/02 09:20:14;;;;;;;3.87;1.57;;;11.10;99.90;;;;;;5072908;28;20032;-68
2022/10/02 09:22:54;;;;;;;2.92;1.55;;;11.10;99.90;;;;;;5072890;28;20029;-68
2022/10/02 09:25:32;;;;;;;2.75;1.30;;;11.20;99.90;;;;;;5073010;28;20097;-68
2022/10/02 09:28:25;;;;;;;4.07;1.60;;;11.20;99.90;;;;;;5073406;28;20091;-68
2022/10/02 09:31:17;;;;;;;2.33;1.60;;;11.30;99.90;;;;;;5072723;28;20025;-68
2022/10/02 09:34:34;;;;;;;4.38;2.60;;;11.30;99.90;;;;;;5073601;28;20096;-68
2022/10/02 09:37:08;;;;;;;3.08;1.60;;;11.40;99.90;;;;;;4976294;28;20074;-68
2022/10/02 09:40:12;;;;;;;3.45;1.40;;;11.40;99.90;;;;;;5072012;28;20507;-68
2022/10/02 09:43:00;;;;;;;3.20;1.20;;;11.40;99.90;;;;;;5044052;28;20484;-68
2022/10/02 09:46:09;;;;;;;3.33;1.67;;;11.40;99.90;;;;;;5076483;28;20040;-68
2022/10/02 09:49:20;;;;;;;3.47;1.77;;;11.40;99.90;;;;;;5058624;28;20028;-68
2022/10/02 09:52:25;;;;;;;3.60;1.30;;;11.40;99.90;;;;;;5076620;28;20134;-68
2022/10/02 09:55:03;;;;;;;3.25;0.95;;;11.40;99.90;;;;;;5076544;28;20033;-68
2022/10/02 09:57:41;;;;;;;3.10;1.10;;;11.50;99.90;;;;;;5058625;28;20433;-68
2022/10/02 10:00:22;;;;;;;2.70;0.97;;;11.50;99.90;;;;;;5076489;28;20051;-68
2022/10/02 10:03:24;;;;;;;3.70;1.20;;;11.50;99.90;;;;;;5076307;28;20064;-68
2022/10/02 10:06:02;;;;;;;;;;;11.50;99.90;;;;;;5076680;28;20030;-68
2022/10/02 10:08:45;;;;;;;;;;;11.50;99.90;;;;;;5076295;28;20028;-68
2022/10/02 10:11:19;;;;;;;;;;;11.50;99.90;;;;;;5076506;28;20032;-68
2022/10/02 10:14:03;;;;;;;;;;;11.50;99.90;;;;;;5076140;28;20064;-68
2022/10/02 10:16:44;;;;;;;;;;;11.50;99.90;;;;;;5058024;28;20036;-68
2022/10/02 10:19:13;;;;;;;12.80;3.95;;;11.50;99.90;;;;;;5075963;28;20032;-69
2022/10/02 10:21:47;;;;;;;11.38;4.90;;;11.60;99.90;;;;;;5075811;28;20068;-69
2022/10/02 10:24:31;;;;;;;6.55;2.05;;;11.70;99.90;;;;;;5075831;28;20020;-69
2022/10/02 10:27:24;;;;;;;5.72;1.88;;;11.70;99.90;;;;;;5075965;28;20028;-69
2022/10/02 10:30:08;;;;;;;4.28;1.90;;;11.80;99.90;;;;;;5076209;28;20345;-69
2022/10/02 10:32:40;;;;;;;18.25;9.50;;;11.90;99.90;;;;;;5075583;28;20020;-69
2022/10/02 10:35:33;;;;;;;11.05;6.60;;;11.90;99.90;;;;;;5075476;28;20048;-69
2022/10/02 10:38:33;;;;;;;17.35;9.88;;;12.00;99.90;;;;;;5075618;28;20025;-69
2022/10/02 10:41:26;;;;;;;10.55;4.78;;;12.00;99.90;;;;;;5075798;28;20020;-69
2022/10/02 10:44:22;;;;;;;30.67;11.85;;;12.10;99.90;;;;;;5075461;28;20423;-69
2022/10/02 10:47:18;;;;;;;9.57;4.82;;;12.10;99.90;;;;;;5075286;28;20100;-69
2022/10/02 10:50:07;;;;;;;7.20;2.78;;;12.10;99.90;;;;;;5075693;28;20095;-69
2022/10/02 10:52:56;;;;;;;3.75;1.67;;;12.20;99.90;;;;;;5076161;28;20414;-69
2022/10/02 10:55:33;;;;;;;3.35;1.60;;;12.20;99.90;;;;;;5061763;28;20032;-69
2022/10/02 10:58:24;;;;;;;4.82;1.50;;;12.20;99.90;;;;;;5075265;28;20028;-69
2022/10/02 11:01:09;;;;;;;2.80;1.10;;;12.20;99.90;;;;;;5075678;28;20372;-69
2022/10/02 11:04:14;;;;;;;2.65;1.60;;;12.20;99.90;;;;;;5057144;28;20165;-69
2022/10/02 11:07:33;;;;;;;3.90;0.95;;;12.20;99.90;;;;;;5074916;28;20039;-70
2022/10/02 11:10:17;;;;;;;2.88;0.95;;;12.20;99.90;;;;;;4974225;28;20055;-69
2022/10/02 11:13:14;;;;;;;2.53;0.80;;;12.20;99.90;;;;;;4974469;28;20027;-69
2022/10/02 11:16:12;;;;;;;2.90;1.13;;;12.40;99.90;;;;;;5065804;28;20098;-69
2022/10/02 11:19:14;;;;;;;13.23;1.13;;;12.60;99.90;;;;;;5074908;28;20031;-69
2022/10/02 11:22:08;;;;;;;1.25;0.70;;;12.80;99.90;;;;;;5071348;28;20028;-69
2022/10/02 11:25:08;;;;;;;1.67;0.98;;;12.80;99.90;;;;;;5074365;28;20039;-71
2022/10/02 11:28:02;;;;;;;1.63;0.68;;;12.90;99.90;;;;;;5073316;28;20361;-69
2022/10/02 11:31:09;;;;;;;2.40;0.55;;;12.80;99.90;;;;;;5074377;28;20016;-69
2022/10/02 11:33:47;;;;;;;5.43;2.38;;;12.80;99.90;;;;;;5074341;28;20073;-69
2022/10/02 11:36:16;;;;;;;3.50;1.48;;;12.80;99.90;;;;;;5068502;28;20052;-69
2022/10/02 11:39:05;;;;;;;2.50;1.27;;;12.80;99.90;;;;;;5074172;28;20024;-69
2022/10/02 11:42:04;;;;;;;2.58;1.00;;;12.90;99.90;;;;;;5073828;28;20056;-69
2022/10/02 11:44:54;;;;;;;1.90;1.00;;;13.00;99.90;;;;;;5074029;28;20481;-69
2022/10/02 11:47:45;;;;;;;2.00;1.20;;;13.10;99.90;;;;;;5073228;28;20031;-69
2022/10/02 11:50:23;;;;;;;13.90;6.53;;;13.10;99.90;;;;;;5074027;28;20031;-69
2022/10/02 11:53:14;;;;;;;8.93;5.10;;;13.10;99.90;;;;;;5073892;28;20010;-69
2022/10/02 11:56:02;;;;;;;3.25;1.73;;;13.10;99.90;;;;;;5067404;28;20031;-69
2022/10/02 11:58:51;;;;;;;2.00;1.00;;;13.00;99.90;;;;;;5073272;28;20031;-69
2022/10/02 12:01:40;;;;;;;2.22;0.70;;;13.20;99.90;;;;;;5073695;28;20476;-69
2022/10/02 12:04:39;;;;;;;1.80;0.75;;;13.20;99.90;;;;;;5073770;28;20116;-68
2022/10/02 12:07:23;;;;;;;1.23;0.70;;;13.20;99.90;;;;;;5073644;28;20034;-69
2022/10/02 12:10:18;;;;;;;2.60;0.80;;;13.30;99.90;;;;;;5073539;28;20021;-70
2022/10/02 12:12:50;;;;;;;2.03;0.98;;;13.30;99.90;;;;;;5073283;28;20052;-70
2022/10/02 12:15:34;;;;;;;1.60;0.80;;;13.50;99.90;;;;;;5073401;28;20472;-70
2022/10/02 12:18:18;;;;;;;1.67;1.10;;;13.70;99.90;;;;;;5073411;28;20456;-70
2022/10/02 12:26:57;;;;;;;2.72;1.65;;;14.20;99.90;;;;;;5072333;28;20055;-69
2022/10/02 12:29:59;;;;;;;1.73;1.00;;;14.10;99.90;;;;;;5069265;28;20020;-70
2022/10/02 12:32:36;;;;;;;2.92;1.17;;;14.10;99.90;;;;;;5062833;28;20062;-70
2022/10/02 12:35:16;;;;;;;1.67;1.00;;;14.00;99.90;;;;;;5066780;28;20027;-71
2022/10/02 12:37:45;;;;;;;1.97;0.93;;;14.00;99.90;;;;;;5067381;28;20056;-69
2022/10/02 12:40:36;;;;;;;1.60;0.87;;;14.10;99.90;;;;;;5070289;28;20032;-70
2022/10/02 12:43:15;;;;;;;2.90;1.00;;;14.10;99.90;;;;;;5071247;28;20400;-69
2022/10/02 12:45:57;;;;;;;2.30;0.80;;;14.00;99.90;;;;;;5065300;28;20017;-71
2022/10/02 12:48:44;;;;;;;;;;;14.00;99.90;;;;;;5055322;28;20532;-70
2022/10/02 12:51:16;;;;;;;;;;;14.00;99.90;;;;;;5025690;28;20103;-70
2022/10/02 12:53:44;;;;;;;;;;;13.90;99.90;;;;;;5068985;28;20032;-70
2022/10/02 12:56:29;;;;;;;;;;;13.80;99.90;;;;;;5072624;28;20089;-70
2022/10/02 12:59:13;;;;;;;;;;;13.70;99.90;;;;;;5054695;28;20036;-70
2022/10/02 13:01:47;;;;;;;;;;;13.80;99.90;;;;;;5072804;28;20040;-70
2022/10/02 13:04:27;;;;;;;;;;;13.90;99.90;;;;;;5073045;28;20036;-70
2022/10/02 13:07:04;;;;;;;;;;;14.00;99.90;;;;;;5072791;28;20040;-70
2022/10/02 13:09:30;;;;;;;;;;;14.00;99.90;;;;;;5075495;28;20361;-70
2022/10/02 13:12:04;;;;;;;;;;;14.00;99.90;;;;;;5076806;28;20038;-70
2022/10/02 13:14:40;;;;;;;;;;;14.00;99.90;;;;;;5077051;28;20032;-71
2022/10/02 13:17:27;;;;;;;;;;;14.10;99.90;;;;;;5077050;28;20036;-71
2022/10/02 13:20:09;;;;;;;;;;;14.10;99.90;;;;;;5075599;28;20032;-71
2022/10/02 13:22:35;;;;;;;;;;;14.10;99.90;;;;;;5076449;28;20036;-71
2022/10/02 13:25:16;;;;;;;;;;;14.10;99.90;;;;;;5076349;28;20445;-71
2022/10/02 13:27:48;;;;;;;;;;;14.20;99.90;;;;;;5076949;28;20036;-70
2022/10/02 13:30:16;;;;;;;;;;;14.10;99.90;;;;;;5076958;28;20124;-70
2022/10/02 13:32:48;;;;;;;;;;;13.90;99.90;;;;;;5077167;28;20555;-70
2022/10/02 13:35:29;;;;;;;;;;;13.90;99.90;;;;;;5076885;28;20040;-70
2022/10/02 13:38:13;;;;;;;;;;;13.80;99.90;;;;;;5076755;28;20022;-70
2022/10/02 13:40:41;;;;;;;;;;;13.80;99.90;;;;;;5077037;28;20044;-70
2022/10/02 13:43:19;;;;;;;;;;;13.70;99.90;;;;;;5076971;28;20045;-70
2022/10/02 13:45:57;;;;;;;;;;;13.60;99.90;;;;;;5076452;28;20046;-71
2022/10/02 13:48:28;;;;;;;;;;;13.60;99.90;;;;;;5076519;28;20011;-71
2022/10/02 13:51:06;;;;;;;;;;;13.60;99.90;;;;;;5077112;28;20376;-71
2022/10/02 13:53:44;;;;;;;;;;;13.60;99.90;;;;;;5076729;28;20484;-72
2022/10/02 13:56:12;;;;;;;;;;;13.50;99.90;;;;;;5076382;28;20024;-72
2022/10/02 13:58:54;;;;;;;;;;;13.50;99.90;;;;;;5076835;28;20060;-72
2022/10/02 14:01:39;;;;;;;;;;;13.50;99.90;;;;;;5076598;28;20043;-72
2022/10/02 14:04:24;;;;;;;;;;;13.50;99.90;;;;;;5075612;28;20055;-72
2022/10/02 14:07:09;;;;;;;;;;;13.50;99.90;;;;;;5076186;28;20090;-72
2022/10/02 14:09:34;;;;;;;;;;;13.50;99.90;;;;;;5076156;28;20044;-71
2022/10/02 14:12:03;;;;;;;;;;;13.60;99.90;;;;;;5076772;28;20036;-72
2022/10/02 14:14:43;;;;;;;;;;;13.50;99.90;;;;;;5076436;28;20074;-72
2022/10/02 14:17:24;;;;;;;;;;;13.60;99.90;;;;;;5076243;28;20043;-72
2022/10/02 14:19:52;;;;;;;;;;;13.50;99.90;;;;;;5075507;28;20483;-72
2022/10/02 14:22:26;;;;;;;;;;;13.60;99.90;;;;;;5075899;28;20032;-71
2022/10/02 14:25:07;;;;;;;;;;;13.50;99.90;;;;;;5076014;28;20031;-71